sensor_id;sensor_type;location;lat;lon;timestamp;P1;durP1;ratioP1;P2;durP2;ratioP2
211;SDS011;16228;48.800;9.002;2023-08-17T00:01:57;15.07;;;13.80;;
211;SDS011;16228;48.800;9.002;2023-08-17T00:04:24;20.73;;;17.63;;
211;SDS011;16228;48.800;9.002;2023-08-17T00:06:51;16.10;;;14.60;;
211;SDS011;16228;48.800;9.002;2023-08-17T00:09:18;16.70;;;15.10;;
211;SDS011;16228;48.800;9.002;2023-08-17T00:11:45;20.57;;;18.27;;
211;SDS011;16228;48.800;9.002;2023-08-17T00:14:13;21.37;;;19.40;;
211;SDS011;16228;48.800;9.002;2023-08-17T00:16:40;20.10;;;18.10;;
211;SDS011;16228;48.800;9.002;2023-08-17T00:19:07;22.73;;;20.30;;
211;SDS011;16228;48.800;9.002;2023-08-17T00:21:34;24.00;;;21.43;;
211;SDS011;16228;48.800;9.002;2023-08-17T00:24:02;16.43;;;14.87;;
211;SDS011;16228;48.800;9.002;2023-08-17T00:26:29;14.13;;;12.90;;
211;SDS011;16228;48.800;9.002;2023-08-17T00:28:56;22.37;;;20.10;;
211;SDS011;16228;48.800;9.002;2023-08-17T00:31:24;16.80;;;15.20;;
211;SDS011;16228;48.800;9.002;2023-08-17T00:33:51;21.47;;;19.23;;
211;SDS011;16228;48.800;9.002;2023-08-17T00:36:18;19.40;;;17.60;;
211;SDS011;16228;48.800;9.002;2023-08-17T00:38:45;18.00;;;16.13;;
211;SDS011;16228;48.800;9.002;2023-08-17T00:41:12;15.97;;;14.37;;
211;SDS011;16228;48.800;9.002;2023-08-17T00:43:39;17.07;;;15.47;;
211;SDS011;16228;48.800;9.002;2023-08-17T00:46:06;21.30;;;19.07;;
211;SDS011;16228;48.800;9.002;2023-08-17T00:48:35;22.73;;;20.27;;
211;SDS011;16228;48.800;9.002;2023-08-17T00:51:02;23.77;;;21.23;;
211;SDS011;16228;48.800;9.002;2023-08-17T00:53:29;18.93;;;17.03;;
211;SDS011;16228;48.800;9.002;2023-08-17T00:55:58;19.63;;;17.67;;
211;SDS011;16228;48.800;9.002;2023-08-17T00:58:27;17.90;;;16.40;;
211;SDS011;16228;48.800;9.002;2023-08-17T01:00:54;19.20;;;17.37;;
211;SDS011;16228;48.800;9.002;2023-08-17T01:03:22;17.03;;;15.53;;
211;SDS011;16228;48.800;9.002;2023-08-17T01:05:52;18.97;;;17.13;;
211;SDS011;16228;48.800;9.002;2023-08-17T01:08:18;14.87;;;13.67;;
211;SDS011;16228;48.800;9.002;2023-08-17T01:10:47;23.47;;;20.97;;
211;SDS011;16228;48.800;9.002;2023-08-17T01:13:23;28.70;;;24.33;;
211;SDS011;16228;48.800;9.002;2023-08-17T01:16:01;21.57;;;19.27;;
211;SDS011;16228;48.800;9.002;2023-08-17T01:18:31;28.17;;;23.67;;
211;SDS011;16228;48.800;9.002;2023-08-17T01:21:02;26.10;;;23.37;;
211;SDS011;16228;48.800;9.002;2023-08-17T01:23:34;18.20;;;16.63;;
211;SDS011;16228;48.800;9.002;2023-08-17T01:26:01;19.63;;;17.97;;
211;SDS011;16228;48.800;9.002;2023-08-17T01:28:28;18.77;;;16.97;;
211;SDS011;16228;48.800;9.002;2023-08-17T01:30:57;22.00;;;19.83;;
211;SDS011;16228;48.800;9.002;2023-08-17T01:33:28;21.47;;;19.47;;
211;SDS011;16228;48.800;9.002;2023-08-17T01:36:01;18.77;;;16.93;;
211;SDS011;16228;48.800;9.002;2023-08-17T01:38:35;16.57;;;15.10;;
211;SDS011;16228;48.800;9.002;2023-08-17T01:41:03;16.37;;;15.03;;
211;SDS011;16228;48.800;9.002;2023-08-17T01:43:31;17.07;;;15.63;;
211;SDS011;16228;48.800;9.002;2023-08-17T01:45:59;14.90;;;13.60;;
211;SDS011;16228;48.800;9.002;2023-08-17T01:48:26;15.13;;;13.93;;
211;SDS011;16228;48.800;9.002;2023-08-17T01:50:53;17.13;;;15.60;;
211;SDS011;16228;48.800;9.002;2023-08-17T01:53:20;16.40;;;15.00;;
211;SDS011;16228;48.800;9.002;2023-08-17T01:55:48;18.43;;;16.67;;
211;SDS011;16228;48.800;9.002;2023-08-17T01:58:15;20.70;;;18.73;;
211;SDS011;16228;48.800;9.002;2023-08-17T02:00:42;16.43;;;14.83;;
211;SDS011;16228;48.800;9.002;2023-08-17T02:03:09;14.47;;;13.23;;
211;SDS011;16228;48.800;9.002;2023-08-17T02:05:36;15.33;;;13.83;;
211;SDS011;16228;48.800;9.002;2023-08-17T02:08:03;12.77;;;11.67;;
211;SDS011;16228;48.800;9.002;2023-08-17T02:10:30;15.90;;;14.33;;
211;SDS011;16228;48.800;9.002;2023-08-17T02:12:58;15.73;;;14.23;;
211;SDS011;16228;48.800;9.002;2023-08-17T02:15:25;16.97;;;15.17;;
211;SDS011;16228;48.800;9.002;2023-08-17T02:17:52;16.57;;;15.00;;
211;SDS011;16228;48.800;9.002;2023-08-17T02:20:19;14.97;;;12.33;;
211;SDS011;16228;48.800;9.002;2023-08-17T02:22:46;13.43;;;12.03;;
211;SDS011;16228;48.800;9.002;2023-08-17T02:25:13;15.83;;;14.30;;
211;SDS011;16228;48.800;9.002;2023-08-17T02:27:40;15.17;;;13.60;;
211;SDS011;16228;48.800;9.002;2023-08-17T02:30:09;17.73;;;13.83;;
211;SDS011;16228;48.800;9.002;2023-08-17T02:32:37;12.83;;;11.53;;
211;SDS011;16228;48.800;9.002;2023-08-17T02:35:04;15.97;;;12.87;;
211;SDS011;16228;48.800;9.002;2023-08-17T02:37:32;11.57;;;10.60;;
211;SDS011;16228;48.800;9.002;2023-08-17T02:39:59;13.47;;;12.27;;
211;SDS011;16228;48.800;9.002;2023-08-17T02:42:26;11.63;;;10.63;;
211;SDS011;16228;48.800;9.002;2023-08-17T02:44:53;12.07;;;10.97;;
211;SDS011;16228;48.800;9.002;2023-08-17T02:47:22;10.63;;;9.73;;
211;SDS011;16228;48.800;9.002;2023-08-17T02:49:49;13.73;;;12.17;;
211;SDS011;16228;48.800;9.002;2023-08-17T02:52:15;11.63;;;10.60;;
211;SDS011;16228;48.800;9.002;2023-08-17T02:54:42;14.93;;;13.33;;
211;SDS011;16228;48.800;9.002;2023-08-17T02:57:09;14.43;;;13.03;;
211;SDS011;16228;48.800;9.002;2023-08-17T02:59:37;13.83;;;12.47;;
211;SDS011;16228;48.800;9.002;2023-08-17T03:02:04;12.87;;;11.73;;
211;SDS011;16228;48.800;9.002;2023-08-17T03:04:32;12.83;;;11.53;;
211;SDS011;16228;48.800;9.002;2023-08-17T03:06:59;10.37;;;9.57;;
211;SDS011;16228;48.800;9.002;2023-08-17T03:09:26;10.60;;;9.70;;
211;SDS011;16228;48.800;9.002;2023-08-17T03:11:53;10.07;;;9.17;;
211;SDS011;16228;48.800;9.002;2023-08-17T03:14:20;16.33;;;14.60;;
211;SDS011;16228;48.800;9.002;2023-08-17T03:16:46;13.23;;;12.13;;
211;SDS011;16228;48.800;9.002;2023-08-17T03:19:14;14.10;;;12.50;;
211;SDS011;16228;48.800;9.002;2023-08-17T03:21:42;9.67;;;8.67;;
211;SDS011;16228;48.800;9.002;2023-08-17T03:24:09;12.27;;;11.10;;
211;SDS011;16228;48.800;9.002;2023-08-17T03:26:36;19.30;;;13.83;;
211;SDS011;16228;48.800;9.002;2023-08-17T03:29:03;17.77;;;13.40;;
211;SDS011;16228;48.800;9.002;2023-08-17T03:31:30;15.53;;;13.13;;
211;SDS011;16228;48.800;9.002;2023-08-17T03:33:57;14.33;;;12.83;;
211;SDS011;16228;48.800;9.002;2023-08-17T03:36:25;33.33;;;18.97;;
211;SDS011;16228;48.800;9.002;2023-08-17T03:38:53;27.47;;;17.93;;
211;SDS011;16228;48.800;9.002;2023-08-17T03:41:20;37.40;;;18.97;;
211;SDS011;16228;48.800;9.002;2023-08-17T03:43:48;30.73;;;16.50;;
211;SDS011;16228;48.800;9.002;2023-08-17T03:46:15;19.47;;;14.20;;
211;SDS011;16228;48.800;9.002;2023-08-17T03:48:42;21.13;;;13.70;;
211;SDS011;16228;48.800;9.002;2023-08-17T03:51:09;24.33;;;15.83;;
211;SDS011;16228;48.800;9.002;2023-08-17T03:53:36;32.47;;;17.03;;
211;SDS011;16228;48.800;9.002;2023-08-17T03:56:04;21.00;;;15.03;;
211;SDS011;16228;48.800;9.002;2023-08-17T03:58:31;22.50;;;15.70;;
211;SDS011;16228;48.800;9.002;2023-08-17T04:01:00;40.20;;;18.10;;
211;SDS011;16228;48.800;9.002;2023-08-17T04:03:28;27.00;;;15.80;;
211;SDS011;16228;48.800;9.002;2023-08-17T04:05:55;28.90;;;16.07;;
211;SDS011;16228;48.800;9.002;2023-08-17T04:08:22;19.40;;;14.53;;
211;SDS011;16228;48.800;9.002;2023-08-17T04:10:49;28.00;;;17.07;;
211;SDS011;16228;48.800;9.002;2023-08-17T04:13:17;21.57;;;13.37;;
211;SDS011;16228;48.800;9.002;2023-08-17T04:15:44;29.93;;;16.60;;
211;SDS011;16228;48.800;9.002;2023-08-17T04:18:11;24.63;;;15.60;;
211;SDS011;16228;48.800;9.002;2023-08-17T04:20:38;22.57;;;14.60;;
211;SDS011;16228;48.800;9.002;2023-08-17T04:23:05;32.90;;;18.00;;
211;SDS011;16228;48.800;9.002;2023-08-17T04:25:32;29.33;;;16.50;;
211;SDS011;16228;48.800;9.002;2023-08-17T04:27:59;22.03;;;14.50;;
211;SDS011;16228;48.800;9.002;2023-08-17T04:30:27;22.53;;;14.70;;
211;SDS011;16228;48.800;9.002;2023-08-17T04:32:54;18.83;;;13.63;;
211;SDS011;16228;48.800;9.002;2023-08-17T04:35:21;15.90;;;11.43;;
211;SDS011;16228;48.800;9.002;2023-08-17T04:37:48;24.90;;;14.63;;
211;SDS011;16228;48.800;9.002;2023-08-17T04:40:15;28.17;;;14.77;;
211;SDS011;16228;48.800;9.002;2023-08-17T04:42:42;18.50;;;13.30;;
211;SDS011;16228;48.800;9.002;2023-08-17T04:45:09;26.40;;;18.40;;
211;SDS011;16228;48.800;9.002;2023-08-17T04:47:37;24.27;;;15.60;;
211;SDS011;16228;48.800;9.002;2023-08-17T04:50:05;15.57;;;12.43;;
211;SDS011;16228;48.800;9.002;2023-08-17T04:52:33;17.17;;;13.50;;
211;SDS011;16228;48.800;9.002;2023-08-17T04:55:00;22.70;;;14.90;;
211;SDS011;16228;48.800;9.002;2023-08-17T04:57:27;13.23;;;10.43;;
211;SDS011;16228;48.800;9.002;2023-08-17T04:59:54;20.93;;;14.10;;
211;SDS011;16228;48.800;9.002;2023-08-17T05:02:21;22.53;;;14.40;;
211;SDS011;16228;48.800;9.002;2023-08-17T05:04:49;15.43;;;12.33;;
211;SDS011;16228;48.800;9.002;2023-08-17T05:07:16;14.37;;;11.40;;
211;SDS011;16228;48.800;9.002;2023-08-17T05:09:43;16.03;;;11.67;;
211;SDS011;16228;48.800;9.002;2023-08-17T05:12:10;13.57;;;12.00;;
211;SDS011;16228;48.800;9.002;2023-08-17T05:14:38;15.10;;;12.27;;
211;SDS011;16228;48.800;9.002;2023-08-17T05:17:05;15.03;;;11.30;;
211;SDS011;16228;48.800;9.002;2023-08-17T05:19:32;12.90;;;10.77;;
211;SDS011;16228;48.800;9.002;2023-08-17T05:22:00;12.27;;;10.97;;
211;SDS011;16228;48.800;9.002;2023-08-17T05:24:27;16.97;;;13.63;;
211;SDS011;16228;48.800;9.002;2023-08-17T05:26:54;15.40;;;12.27;;
211;SDS011;16228;48.800;9.002;2023-08-17T05:29:21;16.43;;;12.70;;
211;SDS011;16228;48.800;9.002;2023-08-17T05:31:48;13.60;;;11.50;;
211;SDS011;16228;48.800;9.002;2023-08-17T05:34:15;13.93;;;12.03;;
211;SDS011;16228;48.800;9.002;2023-08-17T05:36:42;16.27;;;13.23;;
211;SDS011;16228;48.800;9.002;2023-08-17T05:39:10;12.40;;;11.10;;
211;SDS011;16228;48.800;9.002;2023-08-17T05:41:37;11.80;;;10.60;;
211;SDS011;16228;48.800;9.002;2023-08-17T05:44:04;15.73;;;13.53;;
211;SDS011;16228;48.800;9.002;2023-08-17T05:46:32;11.03;;;9.80;;
211;SDS011;16228;48.800;9.002;2023-08-17T05:49:00;15.07;;;13.07;;
211;SDS011;16228;48.800;9.002;2023-08-17T05:51:27;16.20;;;13.30;;
211;SDS011;16228;48.800;9.002;2023-08-17T05:53:54;13.00;;;11.67;;
211;SDS011;16228;48.800;9.002;2023-08-17T05:56:22;14.20;;;11.30;;
211;SDS011;16228;48.800;9.002;2023-08-17T05:58:49;14.67;;;12.77;;
211;SDS011;16228;48.800;9.002;2023-08-17T06:01:16;13.33;;;11.07;;
211;SDS011;16228;48.800;9.002;2023-08-17T06:03:43;16.47;;;12.70;;
211;SDS011;16228;48.800;9.002;2023-08-17T06:06:10;15.60;;;12.07;;
211;SDS011;16228;48.800;9.002;2023-08-17T06:08:37;16.20;;;13.00;;
211;SDS011;16228;48.800;9.002;2023-08-17T06:11:04;12.57;;;11.27;;
211;SDS011;16228;48.800;9.002;2023-08-17T06:13:33;16.80;;;13.23;;
211;SDS011;16228;48.800;9.002;2023-08-17T06:16:00;12.13;;;10.83;;
211;SDS011;16228;48.800;9.002;2023-08-17T06:18:28;10.60;;;8.80;;
211;SDS011;16228;48.800;9.002;2023-08-17T06:20:56;13.27;;;11.63;;
211;SDS011;16228;48.800;9.002;2023-08-17T06:23:23;11.17;;;10.03;;
211;SDS011;16228;48.800;9.002;2023-08-17T06:25:50;11.23;;;10.03;;
211;SDS011;16228;48.800;9.002;2023-08-17T06:28:17;11.47;;;10.37;;
211;SDS011;16228;48.800;9.002;2023-08-17T06:30:46;11.60;;;10.20;;
211;SDS011;16228;48.800;9.002;2023-08-17T06:33:12;11.97;;;10.77;;
211;SDS011;16228;48.800;9.002;2023-08-17T06:35:39;10.17;;;8.90;;
211;SDS011;16228;48.800;9.002;2023-08-17T06:38:07;15.80;;;11.33;;
211;SDS011;16228;48.800;9.002;2023-08-17T06:40:34;10.30;;;9.27;;
211;SDS011;16228;48.800;9.002;2023-08-17T06:43:01;12.90;;;11.63;;
211;SDS011;16228;48.800;9.002;2023-08-17T06:45:28;12.27;;;10.43;;
211;SDS011;16228;48.800;9.002;2023-08-17T06:47:56;13.60;;;12.20;;
211;SDS011;16228;48.800;9.002;2023-08-17T06:50:23;13.33;;;11.63;;
211;SDS011;16228;48.800;9.002;2023-08-17T06:52:51;12.50;;;10.90;;
211;SDS011;16228;48.800;9.002;2023-08-17T06:55:18;15.17;;;12.63;;
211;SDS011;16228;48.800;9.002;2023-08-17T06:57:46;11.93;;;10.73;;
211;SDS011;16228;48.800;9.002;2023-08-17T07:00:15;13.03;;;11.63;;
211;SDS011;16228;48.800;9.002;2023-08-17T07:02:45;12.87;;;11.57;;
211;SDS011;16228;48.800;9.002;2023-08-17T07:05:14;10.90;;;9.83;;
211;SDS011;16228;48.800;9.002;2023-08-17T07:07:41;14.30;;;11.13;;
211;SDS011;16228;48.800;9.002;2023-08-17T07:10:09;10.23;;;9.27;;
211;SDS011;16228;48.800;9.002;2023-08-17T07:12:36;12.90;;;11.50;;
211;SDS011;16228;48.800;9.002;2023-08-17T07:15:04;12.57;;;11.37;;
211;SDS011;16228;48.800;9.002;2023-08-17T07:17:32;13.63;;;11.33;;
211;SDS011;16228;48.800;9.002;2023-08-17T07:19:59;14.40;;;12.90;;
211;SDS011;16228;48.800;9.002;2023-08-17T07:22:28;11.60;;;10.50;;
211;SDS011;16228;48.800;9.002;2023-08-17T07:24:55;12.33;;;10.50;;
211;SDS011;16228;48.800;9.002;2023-08-17T07:27:22;12.80;;;11.50;;
211;SDS011;16228;48.800;9.002;2023-08-17T07:29:49;12.27;;;11.07;;
211;SDS011;16228;48.800;9.002;2023-08-17T07:32:16;13.00;;;11.70;;
211;SDS011;16228;48.800;9.002;2023-08-17T07:34:43;12.70;;;11.37;;
211;SDS011;16228;48.800;9.002;2023-08-17T07:37:10;11.83;;;10.73;;
211;SDS011;16228;48.800;9.002;2023-08-17T07:39:38;13.60;;;12.20;;
211;SDS011;16228;48.800;9.002;2023-08-17T07:42:05;11.70;;;10.53;;
211;SDS011;16228;48.800;9.002;2023-08-17T07:44:32;12.47;;;11.17;;
211;SDS011;16228;48.800;9.002;2023-08-17T07:47:00;12.63;;;11.30;;
211;SDS011;16228;48.800;9.002;2023-08-17T07:49:27;10.97;;;9.73;;
211;SDS011;16228;48.800;9.002;2023-08-17T07:51:54;10.40;;;9.40;;
211;SDS011;16228;48.800;9.002;2023-08-17T07:54:21;8.43;;;7.67;;
211;SDS011;16228;48.800;9.002;2023-08-17T07:56:50;8.10;;;7.33;;
211;SDS011;16228;48.800;9.002;2023-08-17T07:59:17;10.23;;;9.33;;
211;SDS011;16228;48.800;9.002;2023-08-17T08:01:44;10.10;;;9.20;;
211;SDS011;16228;48.800;9.002;2023-08-17T08:04:11;8.83;;;8.03;;
211;SDS011;16228;48.800;9.002;2023-08-17T08:06:38;8.00;;;7.30;;
211;SDS011;16228;48.800;9.002;2023-08-17T08:09:05;7.60;;;6.90;;
211;SDS011;16228;48.800;9.002;2023-08-17T08:11:32;7.68;;;6.88;;
211;SDS011;16228;48.800;9.002;2023-08-17T08:14:00;7.20;;;6.53;;
211;SDS011;16228;48.800;9.002;2023-08-17T08:16:27;6.72;;;5.78;;
211;SDS011;16228;48.800;9.002;2023-08-17T08:18:55;7.70;;;7.07;;
211;SDS011;16228;48.800;9.002;2023-08-17T08:21:22;6.32;;;5.78;;
211;SDS011;16228;48.800;9.002;2023-08-17T08:23:49;5.65;;;5.15;;
211;SDS011;16228;48.800;9.002;2023-08-17T08:26:16;7.05;;;6.43;;
211;SDS011;16228;48.800;9.002;2023-08-17T08:28:43;6.25;;;5.65;;
211;SDS011;16228;48.800;9.002;2023-08-17T08:31:12;6.30;;;5.57;;
211;SDS011;16228;48.800;9.002;2023-08-17T08:33:38;5.55;;;4.95;;
211;SDS011;16228;48.800;9.002;2023-08-17T08:36:05;5.28;;;4.78;;
211;SDS011;16228;48.800;9.002;2023-08-17T08:38:32;5.20;;;4.70;;
211;SDS011;16228;48.800;9.002;2023-08-17T08:40:59;4.22;;;3.83;;
211;SDS011;16228;48.800;9.002;2023-08-17T08:43:27;3.90;;;3.50;;
211;SDS011;16228;48.800;9.002;2023-08-17T08:45:55;5.13;;;4.63;;
211;SDS011;16228;48.800;9.002;2023-08-17T08:48:24;4.78;;;4.28;;
211;SDS011;16228;48.800;9.002;2023-08-17T08:50:53;5.05;;;4.65;;
211;SDS011;16228;48.800;9.002;2023-08-17T08:53:24;4.65;;;4.05;;
211;SDS011;16228;48.800;9.002;2023-08-17T08:55:57;4.45;;;4.13;;
211;SDS011;16228;48.800;9.002;2023-08-17T08:58:26;4.55;;;4.15;;
211;SDS011;16228;48.800;9.002;2023-08-17T09:00:53;5.07;;;4.68;;
211;SDS011;16228;48.800;9.002;2023-08-17T09:03:21;3.85;;;3.55;;
211;SDS011;16228;48.800;9.002;2023-08-17T09:05:50;4.38;;;4.05;;
211;SDS011;16228;48.800;9.002;2023-08-17T09:08:20;3.60;;;3.30;;
211;SDS011;16228;48.800;9.002;2023-08-17T09:10:48;3.50;;;3.20;;
211;SDS011;16228;48.800;9.002;2023-08-17T09:13:16;4.05;;;3.75;;
211;SDS011;16228;48.800;9.002;2023-08-17T09:15:43;3.88;;;3.50;;
211;SDS011;16228;48.800;9.002;2023-08-17T09:18:10;4.07;;;3.78;;
211;SDS011;16228;48.800;9.002;2023-08-17T09:20:37;3.70;;;3.30;;
211;SDS011;16228;48.800;9.002;2023-08-17T09:23:11;4.68;;;4.35;;
211;SDS011;16228;48.800;9.002;2023-08-17T09:25:39;4.28;;;3.70;;
211;SDS011;16228;48.800;9.002;2023-08-17T09:28:07;6.05;;;2.78;;
211;SDS011;16228;48.800;9.002;2023-08-17T09:33:18;4.28;;;3.63;;
211;SDS011;16228;48.800;9.002;2023-08-17T09:35:46;3.83;;;2.97;;
211;SDS011;16228;48.800;9.002;2023-08-17T09:38:15;3.40;;;3.10;;
211;SDS011;16228;48.800;9.002;2023-08-17T09:40:42;3.90;;;3.50;;
211;SDS011;16228;48.800;9.002;2023-08-17T09:43:09;4.80;;;3.67;;
211;SDS011;16228;48.800;9.002;2023-08-17T09:45:38;4.30;;;3.78;;
211;SDS011;16228;48.800;9.002;2023-08-17T09:48:05;3.97;;;3.60;;
211;SDS011;16228;48.800;9.002;2023-08-17T09:50:33;3.42;;;3.13;;
211;SDS011;16228;48.800;9.002;2023-08-17T09:53:01;3.22;;;2.88;;
211;SDS011;16228;48.800;9.002;2023-08-17T09:55:31;3.17;;;2.97;;
211;SDS011;16228;48.800;9.002;2023-08-17T09:57:59;3.28;;;2.97;;
211;SDS011;16228;48.800;9.002;2023-08-17T10:00:26;4.72;;;3.40;;
211;SDS011;16228;48.800;9.002;2023-08-17T10:02:54;4.13;;;3.83;;
211;SDS011;16228;48.800;9.002;2023-08-17T10:05:24;3.72;;;3.53;;
211;SDS011;16228;48.800;9.002;2023-08-17T10:07:54;4.82;;;4.47;;
211;SDS011;16228;48.800;9.002;2023-08-17T10:10:25;5.90;;;4.97;;
211;SDS011;16228;48.800;9.002;2023-08-17T10:12:57;6.07;;;5.53;;
211;SDS011;16228;48.800;9.002;2023-08-17T10:15:32;5.57;;;5.18;;
211;SDS011;16228;48.800;9.002;2023-08-17T10:18:07;4.22;;;3.83;;
211;SDS011;16228;48.800;9.002;2023-08-17T10:20:40;4.43;;;3.53;;
211;SDS011;16228;48.800;9.002;2023-08-17T10:23:14;4.82;;;4.50;;
211;SDS011;16228;48.800;9.002;2023-08-17T10:25:43;5.20;;;4.80;;
211;SDS011;16228;48.800;9.002;2023-08-17T10:28:13;4.35;;;3.95;;
211;SDS011;16228;48.800;9.002;2023-08-17T10:30:42;5.80;;;4.03;;
211;SDS011;16228;48.800;9.002;2023-08-17T10:33:09;4.70;;;4.20;;
211;SDS011;16228;48.800;9.002;2023-08-17T10:35:37;5.05;;;4.38;;
211;SDS011;16228;48.800;9.002;2023-08-17T10:38:06;4.53;;;4.00;;
211;SDS011;16228;48.800;9.002;2023-08-17T10:40:36;4.00;;;3.60;;
211;SDS011;16228;48.800;9.002;2023-08-17T10:43:05;4.38;;;4.07;;
211;SDS011;16228;48.800;9.002;2023-08-17T10:45:34;4.10;;;3.90;;
211;SDS011;16228;48.800;9.002;2023-08-17T10:51:03;5.07;;;4.63;;
211;SDS011;16228;48.800;9.002;2023-08-17T10:53:37;5.88;;;5.32;;
211;SDS011;16228;48.800;9.002;2023-08-17T10:56:10;4.53;;;4.13;;
211;SDS011;16228;48.800;9.002;2023-08-17T10:58:39;5.85;;;5.18;;
211;SDS011;16228;48.800;9.002;2023-08-17T11:01:09;4.38;;;3.97;;
211;SDS011;16228;48.800;9.002;2023-08-17T11:03:36;4.65;;;4.22;;
211;SDS011;16228;48.800;9.002;2023-08-17T11:06:14;4.30;;;4.00;;
211;SDS011;16228;48.800;9.002;2023-08-17T11:08:52;4.20;;;3.85;;
211;SDS011;16228;48.800;9.002;2023-08-17T11:11:21;6.57;;;5.95;;
211;SDS011;16228;48.800;9.002;2023-08-17T11:13:49;4.60;;;4.20;;
211;SDS011;16228;48.800;9.002;2023-08-17T11:16:17;5.25;;;4.85;;
211;SDS011;16228;48.800;9.002;2023-08-17T11:18:45;5.35;;;4.90;;
211;SDS011;16228;48.800;9.002;2023-08-17T11:21:14;4.88;;;4.47;;
211;SDS011;16228;48.800;9.002;2023-08-17T11:23:42;4.95;;;4.60;;
211;SDS011;16228;48.800;9.002;2023-08-17T11:26:09;5.05;;;4.57;;
211;SDS011;16228;48.800;9.002;2023-08-17T11:28:37;4.90;;;4.53;;
211;SDS011;16228;48.800;9.002;2023-08-17T11:31:06;5.72;;;5.13;;
211;SDS011;16228;48.800;9.002;2023-08-17T11:33:36;6.70;;;6.10;;
211;SDS011;16228;48.800;9.002;2023-08-17T11:36:04;5.72;;;5.18;;
211;SDS011;16228;48.800;9.002;2023-08-17T11:38:33;6.78;;;5.95;;
211;SDS011;16228;48.800;9.002;2023-08-17T11:41:01;6.07;;;5.50;;
211;SDS011;16228;48.800;9.002;2023-08-17T11:43:29;10.48;;;6.78;;
211;SDS011;16228;48.800;9.002;2023-08-17T11:45:56;6.32;;;5.70;;
211;SDS011;16228;48.800;9.002;2023-08-17T11:48:24;6.45;;;5.53;;
211;SDS011;16228;48.800;9.002;2023-08-17T11:50:53;6.90;;;6.25;;
211;SDS011;16228;48.800;9.002;2023-08-17T11:53:20;5.63;;;5.13;;
211;SDS011;16228;48.800;9.002;2023-08-17T11:55:47;6.97;;;5.15;;
211;SDS011;16228;48.800;9.002;2023-08-17T11:58:14;6.95;;;6.25;;
211;SDS011;16228;48.800;9.002;2023-08-17T12:00:42;5.97;;;5.47;;
211;SDS011;16228;48.800;9.002;2023-08-17T12:03:12;7.10;;;6.30;;
211;SDS011;16228;48.800;9.002;2023-08-17T12:05:41;6.40;;;5.63;;
211;SDS011;16228;48.800;9.002;2023-08-17T12:08:11;6.32;;;5.63;;
211;SDS011;16228;48.800;9.002;2023-08-17T12:10:39;5.87;;;4.80;;
211;SDS011;16228;48.800;9.002;2023-08-17T12:13:10;6.80;;;6.20;;
211;SDS011;16228;48.800;9.002;2023-08-17T12:15:38;6.50;;;5.73;;
211;SDS011;16228;48.800;9.002;2023-08-17T12:18:05;6.40;;;5.80;;
211;SDS011;16228;48.800;9.002;2023-08-17T12:20:32;6.03;;;5.50;;
211;SDS011;16228;48.800;9.002;2023-08-17T12:23:02;6.47;;;5.87;;
211;SDS011;16228;48.800;9.002;2023-08-17T12:25:30;6.03;;;5.53;;
211;SDS011;16228;48.800;9.002;2023-08-17T12:27:58;7.60;;;6.90;;
211;SDS011;16228;48.800;9.002;2023-08-17T12:30:26;6.23;;;5.77;;
211;SDS011;16228;48.800;9.002;2023-08-17T12:32:56;6.20;;;5.70;;
211;SDS011;16228;48.800;9.002;2023-08-17T12:35:24;7.30;;;6.17;;
211;SDS011;16228;48.800;9.002;2023-08-17T12:37:51;5.97;;;5.57;;
211;SDS011;16228;48.800;9.002;2023-08-17T12:40:18;6.33;;;5.80;;
211;SDS011;16228;48.800;9.002;2023-08-17T12:42:47;7.77;;;6.67;;
211;SDS011;16228;48.800;9.002;2023-08-17T12:45:14;7.37;;;6.60;;
211;SDS011;16228;48.800;9.002;2023-08-17T12:47:41;7.27;;;6.57;;
211;SDS011;16228;48.800;9.002;2023-08-17T12:50:09;8.07;;;7.23;;
211;SDS011;16228;48.800;9.002;2023-08-17T12:52:37;8.70;;;7.90;;
211;SDS011;16228;48.800;9.002;2023-08-17T12:55:05;9.67;;;8.67;;
211;SDS011;16228;48.800;9.002;2023-08-17T12:57:32;8.87;;;8.07;;
211;SDS011;16228;48.800;9.002;2023-08-17T13:00:00;9.27;;;8.13;;
211;SDS011;16228;48.800;9.002;2023-08-17T13:02:27;9.40;;;8.47;;
211;SDS011;16228;48.800;9.002;2023-08-17T13:04:54;10.63;;;9.67;;
211;SDS011;16228;48.800;9.002;2023-08-17T13:07:21;12.97;;;11.70;;
211;SDS011;16228;48.800;9.002;2023-08-17T13:09:48;12.67;;;11.57;;
211;SDS011;16228;48.800;9.002;2023-08-17T13:12:15;12.97;;;11.77;;
211;SDS011;16228;48.800;9.002;2023-08-17T13:14:42;12.67;;;11.37;;
211;SDS011;16228;48.800;9.002;2023-08-17T13:17:10;10.53;;;9.47;;
211;SDS011;16228;48.800;9.002;2023-08-17T13:19:39;12.90;;;11.30;;
211;SDS011;16228;48.800;9.002;2023-08-17T13:22:06;14.50;;;13.10;;
211;SDS011;16228;48.800;9.002;2023-08-17T13:24:35;11.27;;;10.23;;
211;SDS011;16228;48.800;9.002;2023-08-17T13:27:03;13.43;;;12.10;;
211;SDS011;16228;48.800;9.002;2023-08-17T13:29:30;12.17;;;11.07;;
211;SDS011;16228;48.800;9.002;2023-08-17T13:31:57;11.07;;;10.17;;
211;SDS011;16228;48.800;9.002;2023-08-17T13:34:25;9.73;;;8.53;;
211;SDS011;16228;48.800;9.002;2023-08-17T13:36:52;9.90;;;9.10;;
211;SDS011;16228;48.800;9.002;2023-08-17T13:39:19;9.90;;;9.00;;
211;SDS011;16228;48.800;9.002;2023-08-17T13:41:46;8.30;;;7.50;;
211;SDS011;16228;48.800;9.002;2023-08-17T13:44:13;10.23;;;9.37;;
211;SDS011;16228;48.800;9.002;2023-08-17T13:46:39;7.60;;;7.10;;
211;SDS011;16228;48.800;9.002;2023-08-17T13:49:06;14.10;;;12.70;;
211;SDS011;16228;48.800;9.002;2023-08-17T13:51:35;10.30;;;9.30;;
211;SDS011;16228;48.800;9.002;2023-08-17T13:54:02;13.03;;;11.73;;
211;SDS011;16228;48.800;9.002;2023-08-17T13:56:29;10.47;;;9.40;;
211;SDS011;16228;48.800;9.002;2023-08-17T13:58:56;10.30;;;9.27;;
211;SDS011;16228;48.800;9.002;2023-08-17T14:01:23;11.87;;;10.87;;
211;SDS011;16228;48.800;9.002;2023-08-17T14:03:50;11.90;;;10.90;;
211;SDS011;16228;48.800;9.002;2023-08-17T14:06:17;10.70;;;9.90;;
211;SDS011;16228;48.800;9.002;2023-08-17T14:08:45;15.63;;;14.40;;
211;SDS011;16228;48.800;9.002;2023-08-17T14:11:12;13.57;;;12.47;;
211;SDS011;16228;48.800;9.002;2023-08-17T14:13:39;13.90;;;12.63;;
211;SDS011;16228;48.800;9.002;2023-08-17T14:16:06;11.63;;;10.50;;
211;SDS011;16228;48.800;9.002;2023-08-17T14:18:33;12.40;;;11.30;;
211;SDS011;16228;48.800;9.002;2023-08-17T14:21:00;16.50;;;14.97;;
211;SDS011;16228;48.800;9.002;2023-08-17T14:23:27;11.57;;;10.60;;
211;SDS011;16228;48.800;9.002;2023-08-17T14:25:55;11.43;;;10.43;;
211;SDS011;16228;48.800;9.002;2023-08-17T14:28:22;16.43;;;14.93;;
211;SDS011;16228;48.800;9.002;2023-08-17T14:30:49;15.70;;;14.30;;
211;SDS011;16228;48.800;9.002;2023-08-17T14:33:16;12.37;;;11.30;;
211;SDS011;16228;48.800;9.002;2023-08-17T14:35:43;13.67;;;12.47;;
211;SDS011;16228;48.800;9.002;2023-08-17T14:38:09;15.10;;;13.70;;
211;SDS011;16228;48.800;9.002;2023-08-17T14:40:39;11.67;;;10.60;;
211;SDS011;16228;48.800;9.002;2023-08-17T14:43:09;11.97;;;10.97;;
211;SDS011;16228;48.800;9.002;2023-08-17T14:45:38;14.57;;;13.20;;
211;SDS011;16228;48.800;9.002;2023-08-17T14:48:06;12.13;;;11.03;;
211;SDS011;16228;48.800;9.002;2023-08-17T14:50:33;13.63;;;12.33;;
211;SDS011;16228;48.800;9.002;2023-08-17T14:53:00;12.50;;;11.37;;
211;SDS011;16228;48.800;9.002;2023-08-17T14:55:27;13.17;;;11.87;;
211;SDS011;16228;48.800;9.002;2023-08-17T14:57:54;13.83;;;12.63;;
211;SDS011;16228;48.800;9.002;2023-08-17T15:00:23;12.67;;;11.47;;
211;SDS011;16228;48.800;9.002;2023-08-17T15:02:50;12.13;;;10.97;;
211;SDS011;16228;48.800;9.002;2023-08-17T15:05:17;12.80;;;11.53;;
211;SDS011;16228;48.800;9.002;2023-08-17T15:07:44;10.83;;;9.83;;